sensor_id;sensor_type;location;lat;lon;timestamp;temperature;humidity
3860;DHT22;1945;52.036;8.614;2023-05-07T00:01:05;13.60;1.00
3860;DHT22;1945;52.036;8.614;2023-05-07T00:03:33;13.30;1.00
3860;DHT22;1945;52.036;8.614;2023-05-07T00:06:00;13.20;1.00
3860;DHT22;1945;52.036;8.614;2023-05-07T00:08:27;13.10;1.00
3860;DHT22;1945;52.036;8.614;2023-05-07T00:10:53;13.10;1.00
3860;DHT22;1945;52.036;8.614;2023-05-07T00:13:20;13.00;1.00
3860;DHT22;1945;52.036;8.614;2023-05-07T00:15:47;13.00;1.00
3860;DHT22;1945;52.036;8.614;2023-05-07T00:18:14;13.00;1.00
3860;DHT22;1945;52.036;8.614;2023-05-07T00:20:42;12.90;1.00
3860;DHT22;1945;52.036;8.614;2023-05-07T00:23:09;12.90;1.00
3860;DHT22;1945;52.036;8.614;2023-05-07T00:25:36;13.00;1.00
3860;DHT22;1945;52.036;8.614;2023-05-07T00:28:03;13.00;1.00
3860;DHT22;1945;52.036;8.614;2023-05-07T00:30:29;12.90;1.00
3860;DHT22;1945;52.036;8.614;2023-05-07T00:32:56;12.90;1.00
3860;DHT22;1945;52.036;8.614;2023-05-07T00:35:23;12.90;1.00
3860;DHT22;1945;52.036;8.614;2023-05-07T00:37:51;12.90;1.00
3860;DHT22;1945;52.036;8.614;2023-05-07T00:40:18;12.90;1.00
3860;DHT22;1945;52.036;8.614;2023-05-07T00:42:45;12.90;1.00
3860;DHT22;1945;52.036;8.614;2023-05-07T00:45:12;12.80;1.00
3860;DHT22;1945;52.036;8.614;2023-05-07T00:47:39;13.20;1.00
3860;DHT22;1945;52.036;8.614;2023-05-07T00:50:07;12.80;1.00
3860;DHT22;1945;52.036;8.614;2023-05-07T00:52:35;12.90;1.00
3860;DHT22;1945;52.036;8.614;2023-05-07T00:55:05;12.80;1.00
3860;DHT22;1945;52.036;8.614;2023-05-07T00:57:34;12.80;1.00
3860;DHT22;1945;52.036;8.614;2023-05-07T01:00:03;12.80;1.00
3860;DHT22;1945;52.036;8.614;2023-05-07T01:02:30;12.80;1.00
3860;DHT22;1945;52.036;8.614;2023-05-07T01:04:57;12.70;1.00
3860;DHT22;1945;52.036;8.614;2023-05-07T01:07:24;12.70;1.00
3860;DHT22;1945;52.036;8.614;2023-05-07T01:09:51;12.70;1.00
3860;DHT22;1945;52.036;8.614;2023-05-07T01:12:19;12.60;1.00
3860;DHT22;1945;52.036;8.614;2023-05-07T01:14:46;12.60;1.00
3860;DHT22;1945;52.036;8.614;2023-05-07T01:17:15;12.60;1.00
3860;DHT22;1945;52.036;8.614;2023-05-07T01:19:42;12.60;1.00
3860;DHT22;1945;52.036;8.614;2023-05-07T01:22:10;12.60;1.00
3860;DHT22;1945;52.036;8.614;2023-05-07T01:24:39;12.60;1.00
3860;DHT22;1945;52.036;8.614;2023-05-07T01:27:05;12.60;1.00
3860;DHT22;1945;52.036;8.614;2023-05-07T01:29:32;13.00;1.00
3860;DHT22;1945;52.036;8.614;2023-05-07T01:32:00;12.80;1.00
3860;DHT22;1945;52.036;8.614;2023-05-07T01:34:30;12.60;1.00
3860;DHT22;1945;52.036;8.614;2023-05-07T01:36:58;12.60;1.00
3860;DHT22;1945;52.036;8.614;2023-05-07T01:39:27;12.60;1.00
3860;DHT22;1945;52.036;8.614;2023-05-07T01:41:56;12.50;1.00
3860;DHT22;1945;52.036;8.614;2023-05-07T01:44:23;12.50;1.00
3860;DHT22;1945;52.036;8.614;2023-05-07T01:46:50;12.50;1.00
3860;DHT22;1945;52.036;8.614;2023-05-07T01:49:18;12.50;1.00
3860;DHT22;1945;52.036;8.614;2023-05-07T01:51:45;12.50;1.00
3860;DHT22;1945;52.036;8.614;2023-05-07T01:54:11;12.40;1.00
3860;DHT22;1945;52.036;8.614;2023-05-07T01:56:38;12.40;1.00
3860;DHT22;1945;52.036;8.614;2023-05-07T01:59:06;12.40;1.00
3860;DHT22;1945;52.036;8.614;2023-05-07T02:01:33;12.40;1.00
3860;DHT22;1945;52.036;8.614;2023-05-07T02:04:00;12.30;1.00
3860;DHT22;1945;52.036;8.614;2023-05-07T02:06:26;12.30;1.00
3860;DHT22;1945;52.036;8.614;2023-05-07T02:08:53;12.30;1.00
3860;DHT22;1945;52.036;8.614;2023-05-07T02:11:20;12.30;1.00
3860;DHT22;1945;52.036;8.614;2023-05-07T02:13:46;12.20;1.00
3860;DHT22;1945;52.036;8.614;2023-05-07T02:16:14;12.30;1.00
3860;DHT22;1945;52.036;8.614;2023-05-07T02:18:41;12.30;1.00
3860;DHT22;1945;52.036;8.614;2023-05-07T02:21:08;12.30;1.00
3860;DHT22;1945;52.036;8.614;2023-05-07T02:23:34;12.30;1.00
3860;DHT22;1945;52.036;8.614;2023-05-07T02:26:01;12.30;1.00
3860;DHT22;1945;52.036;8.614;2023-05-07T02:28:28;12.30;1.00
3860;DHT22;1945;52.036;8.614;2023-05-07T02:30:55;12.30;1.00
3860;DHT22;1945;52.036;8.614;2023-05-07T02:33:25;12.20;1.00
3860;DHT22;1945;52.036;8.614;2023-05-07T02:35:52;12.60;1.00
3860;DHT22;1945;52.036;8.614;2023-05-07T02:38:18;12.20;1.00
3860;DHT22;1945;52.036;8.614;2023-05-07T02:40:45;12.20;1.00
3860;DHT22;1945;52.036;8.614;2023-05-07T02:43:12;12.20;1.00
3860;DHT22;1945;52.036;8.614;2023-05-07T02:45:39;12.20;1.00
3860;DHT22;1945;52.036;8.614;2023-05-07T02:48:05;12.10;1.00
3860;DHT22;1945;52.036;8.614;2023-05-07T02:50:34;12.50;1.00
3860;DHT22;1945;52.036;8.614;2023-05-07T02:53:00;12.10;1.00
3860;DHT22;1945;52.036;8.614;2023-05-07T02:55:27;12.50;1.00
3860;DHT22;1945;52.036;8.614;2023-05-07T02:57:54;12.10;1.00
3860;DHT22;1945;52.036;8.614;2023-05-07T03:00:21;12.10;1.00
3860;DHT22;1945;52.036;8.614;2023-05-07T03:02:48;12.10;1.00
3860;DHT22;1945;52.036;8.614;2023-05-07T03:05:15;12.10;1.00
3860;DHT22;1945;52.036;8.614;2023-05-07T03:07:43;12.10;1.00
3860;DHT22;1945;52.036;8.614;2023-05-07T03:10:11;11.80;1.00
3860;DHT22;1945;52.036;8.614;2023-05-07T03:12:38;12.00;1.00
3860;DHT22;1945;52.036;8.614;2023-05-07T03:15:05;12.00;1.00
3860;DHT22;1945;52.036;8.614;2023-05-07T03:17:33;12.00;1.00
3860;DHT22;1945;52.036;8.614;2023-05-07T03:20:00;12.00;1.00
3860;DHT22;1945;52.036;8.614;2023-05-07T03:22:27;12.00;1.00
3860;DHT22;1945;52.036;8.614;2023-05-07T03:24:55;12.30;1.00
3860;DHT22;1945;52.036;8.614;2023-05-07T03:27:21;11.90;1.00
3860;DHT22;1945;52.036;8.614;2023-05-07T03:29:48;11.90;1.00
3860;DHT22;1945;52.036;8.614;2023-05-07T03:32:15;12.20;1.00
3860;DHT22;1945;52.036;8.614;2023-05-07T03:34:41;11.90;1.00
3860;DHT22;1945;52.036;8.614;2023-05-07T03:37:08;11.90;1.00
3860;DHT22;1945;52.036;8.614;2023-05-07T03:39:35;11.80;1.00
3860;DHT22;1945;52.036;8.614;2023-05-07T03:42:03;11.90;1.00
3860;DHT22;1945;52.036;8.614;2023-05-07T03:44:30;11.80;1.00
3860;DHT22;1945;52.036;8.614;2023-05-07T03:46:56;11.80;1.00
3860;DHT22;1945;52.036;8.614;2023-05-07T03:49:23;11.80;1.00
3860;DHT22;1945;52.036;8.614;2023-05-07T03:51:50;11.80;1.00
3860;DHT22;1945;52.036;8.614;2023-05-07T03:54:16;11.80;1.00
3860;DHT22;1945;52.036;8.614;2023-05-07T03:56:43;11.80;1.00
3860;DHT22;1945;52.036;8.614;2023-05-07T03:59:11;11.70;1.00
3860;DHT22;1945;52.036;8.614;2023-05-07T04:01:38;11.80;1.00
3860;DHT22;1945;52.036;8.614;2023-05-07T04:04:05;11.80;1.00
3860;DHT22;1945;52.036;8.614;2023-05-07T04:06:32;11.80;1.00
3860;DHT22;1945;52.036;8.614;2023-05-07T04:08:59;11.80;1.00
3860;DHT22;1945;52.036;8.614;2023-05-07T04:11:26;11.70;1.00
3860;DHT22;1945;52.036;8.614;2023-05-07T04:13:52;11.70;1.00
3860;DHT22;1945;52.036;8.614;2023-05-07T04:16:20;11.70;1.00
3860;DHT22;1945;52.036;8.614;2023-05-07T04:18:47;11.70;1.00
3860;DHT22;1945;52.036;8.614;2023-05-07T04:21:15;12.10;1.00
3860;DHT22;1945;52.036;8.614;2023-05-07T04:23:42;11.70;1.00
3860;DHT22;1945;52.036;8.614;2023-05-07T04:26:08;11.70;1.00
3860;DHT22;1945;52.036;8.614;2023-05-07T04:28:36;12.20;1.00
3860;DHT22;1945;52.036;8.614;2023-05-07T04:31:02;11.70;1.00
3860;DHT22;1945;52.036;8.614;2023-05-07T04:33:31;11.70;1.00
3860;DHT22;1945;52.036;8.614;2023-05-07T04:36:01;11.70;1.00
3860;DHT22;1945;52.036;8.614;2023-05-07T04:38:29;12.00;1.00
3860;DHT22;1945;52.036;8.614;2023-05-07T04:40:57;11.70;1.00
3860;DHT22;1945;52.036;8.614;2023-05-07T04:43:24;11.70;1.00
3860;DHT22;1945;52.036;8.614;2023-05-07T04:45:51;11.80;1.00
3860;DHT22;1945;52.036;8.614;2023-05-07T04:48:17;11.70;1.00
3860;DHT22;1945;52.036;8.614;2023-05-07T04:50:48;11.70;1.00
3860;DHT22;1945;52.036;8.614;2023-05-07T04:53:15;11.70;1.00
3860;DHT22;1945;52.036;8.614;2023-05-07T04:55:42;11.70;1.00
3860;DHT22;1945;52.036;8.614;2023-05-07T04:58:09;11.70;1.00
3860;DHT22;1945;52.036;8.614;2023-05-07T05:00:36;11.70;1.00
3860;DHT22;1945;52.036;8.614;2023-05-07T05:03:03;11.70;1.00
3860;DHT22;1945;52.036;8.614;2023-05-07T05:05:30;11.70;1.00
3860;DHT22;1945;52.036;8.614;2023-05-07T05:07:58;11.80;1.00
3860;DHT22;1945;52.036;8.614;2023-05-07T05:10:25;11.70;1.00
3860;DHT22;1945;52.036;8.614;2023-05-07T05:12:52;11.80;1.00
3860;DHT22;1945;52.036;8.614;2023-05-07T05:15:18;11.80;1.00
3860;DHT22;1945;52.036;8.614;2023-05-07T05:17:45;11.90;1.00
3860;DHT22;1945;52.036;8.614;2023-05-07T05:20:12;12.30;1.00
3860;DHT22;1945;52.036;8.614;2023-05-07T05:22:40;11.90;1.00
3860;DHT22;1945;52.036;8.614;2023-05-07T05:25:08;11.90;1.00
3860;DHT22;1945;52.036;8.614;2023-05-07T05:27:35;12.00;1.00
3860;DHT22;1945;52.036;8.614;2023-05-07T05:30:02;12.00;1.00
3860;DHT22;1945;52.036;8.614;2023-05-07T05:32:29;12.00;1.00
3860;DHT22;1945;52.036;8.614;2023-05-07T05:34:56;12.00;1.00
3860;DHT22;1945;52.036;8.614;2023-05-07T05:37:22;12.40;1.00
3860;DHT22;1945;52.036;8.614;2023-05-07T05:39:49;12.10;1.00
3860;DHT22;1945;52.036;8.614;2023-05-07T05:42:17;12.10;1.00
3860;DHT22;1945;52.036;8.614;2023-05-07T05:44:44;12.50;1.00
3860;DHT22;1945;52.036;8.614;2023-05-07T05:47:11;12.10;1.00
3860;DHT22;1945;52.036;8.614;2023-05-07T05:49:37;12.20;1.00
3860;DHT22;1945;52.036;8.614;2023-05-07T05:52:04;12.60;1.00
3860;DHT22;1945;52.036;8.614;2023-05-07T05:54:31;12.30;1.00
3860;DHT22;1945;52.036;8.614;2023-05-07T05:56:57;12.30;1.00
3860;DHT22;1945;52.036;8.614;2023-05-07T05:59:26;12.60;1.00
3860;DHT22;1945;52.036;8.614;2023-05-07T06:01:52;12.40;1.00
3860;DHT22;1945;52.036;8.614;2023-05-07T06:04:19;12.50;1.00
3860;DHT22;1945;52.036;8.614;2023-05-07T06:06:46;12.50;1.00
3860;DHT22;1945;52.036;8.614;2023-05-07T06:09:12;12.60;1.00
3860;DHT22;1945;52.036;8.614;2023-05-07T06:11:39;12.70;1.00
3860;DHT22;1945;52.036;8.614;2023-05-07T06:14:06;12.70;1.00
3860;DHT22;1945;52.036;8.614;2023-05-07T06:16:34;12.70;1.00
3860;DHT22;1945;52.036;8.614;2023-05-07T06:19:03;12.90;1.00
3860;DHT22;1945;52.036;8.614;2023-05-07T06:21:29;13.00;1.00
3860;DHT22;1945;52.036;8.614;2023-05-07T06:23:56;13.10;1.00
3860;DHT22;1945;52.036;8.614;2023-05-07T06:26:23;13.20;1.00
3860;DHT22;1945;52.036;8.614;2023-05-07T06:28:50;13.20;1.00
3860;DHT22;1945;52.036;8.614;2023-05-07T06:31:19;13.20;99.90
3860;DHT22;1945;52.036;8.614;2023-05-07T06:33:49;13.20;1.00
3860;DHT22;1945;52.036;8.614;2023-05-07T06:36:15;13.30;99.90
3860;DHT22;1945;52.036;8.614;2023-05-07T06:38:42;13.30;99.90
3860;DHT22;1945;52.036;8.614;2023-05-07T06:41:09;13.30;1.00
3860;DHT22;1945;52.036;8.614;2023-05-07T06:43:35;13.30;99.90
3860;DHT22;1945;52.036;8.614;2023-05-07T06:46:02;13.50;1.00
3860;DHT22;1945;52.036;8.614;2023-05-07T06:48:29;13.40;99.90
3860;DHT22;1945;52.036;8.614;2023-05-07T06:50:57;13.70;99.90
3860;DHT22;1945;52.036;8.614;2023-05-07T06:53:24;13.70;99.90
3860;DHT22;1945;52.036;8.614;2023-05-07T06:55:51;14.00;99.90
3860;DHT22;1945;52.036;8.614;2023-05-07T06:58:18;13.60;99.90
3860;DHT22;1945;52.036;8.614;2023-05-07T07:00:45;13.50;99.90
3860;DHT22;1945;52.036;8.614;2023-05-07T07:03:11;13.50;99.90
3860;DHT22;1945;52.036;8.614;2023-05-07T07:05:40;13.70;99.90
3860;DHT22;1945;52.036;8.614;2023-05-07T07:08:09;13.70;99.90
3860;DHT22;1945;52.036;8.614;2023-05-07T07:10:36;13.70;99.90
3860;DHT22;1945;52.036;8.614;2023-05-07T07:13:03;13.90;99.90
3860;DHT22;1945;52.036;8.614;2023-05-07T07:15:30;14.10;99.90
3860;DHT22;1945;52.036;8.614;2023-05-07T07:17:56;14.10;99.90
3860;DHT22;1945;52.036;8.614;2023-05-07T07:20:23;14.00;99.90
3860;DHT22;1945;52.036;8.614;2023-05-07T07:22:50;14.20;99.90
3860;DHT22;1945;52.036;8.614;2023-05-07T07:25:18;14.50;99.90
3860;DHT22;1945;52.036;8.614;2023-05-07T07:27:44;14.70;99.90
3860;DHT22;1945;52.036;8.614;2023-05-07T07:30:11;14.70;99.90
3860;DHT22;1945;52.036;8.614;2023-05-07T07:32:38;14.50;99.90
3860;DHT22;1945;52.036;8.614;2023-05-07T07:35:06;14.50;99.90
3860;DHT22;1945;52.036;8.614;2023-05-07T07:37:32;14.30;99.90
3860;DHT22;1945;52.036;8.614;2023-05-07T07:40:00;14.30;99.90
3860;DHT22;1945;52.036;8.614;2023-05-07T07:42:28;14.60;99.90
3860;DHT22;1945;52.036;8.614;2023-05-07T07:44:55;14.80;99.90
3860;DHT22;1945;52.036;8.614;2023-05-07T07:47:22;14.90;99.90
3860;DHT22;1945;52.036;8.614;2023-05-07T07:49:49;14.50;99.90
3860;DHT22;1945;52.036;8.614;2023-05-07T07:52:15;14.50;99.90
3860;DHT22;1945;52.036;8.614;2023-05-07T07:54:42;14.60;99.90
3860;DHT22;1945;52.036;8.614;2023-05-07T07:57:09;14.50;99.90
3860;DHT22;1945;52.036;8.614;2023-05-07T07:59:37;14.60;99.90
3860;DHT22;1945;52.036;8.614;2023-05-07T08:02:05;14.90;99.90
3860;DHT22;1945;52.036;8.614;2023-05-07T08:04:32;14.80;99.90
3860;DHT22;1945;52.036;8.614;2023-05-07T08:06:58;14.60;99.90
3860;DHT22;1945;52.036;8.614;2023-05-07T08:09:25;14.50;99.90
3860;DHT22;1945;52.036;8.614;2023-05-07T08:11:52;14.70;99.90
3860;DHT22;1945;52.036;8.614;2023-05-07T08:14:19;14.80;99.90
3860;DHT22;1945;52.036;8.614;2023-05-07T08:16:47;15.00;99.90
3860;DHT22;1945;52.036;8.614;2023-05-07T08:19:14;15.00;73.70
3860;DHT22;1945;52.036;8.614;2023-05-07T08:21:41;15.10;99.90
3860;DHT22;1945;52.036;8.614;2023-05-07T08:24:07;15.00;99.90
3860;DHT22;1945;52.036;8.614;2023-05-07T08:26:34;15.00;99.90
3860;DHT22;1945;52.036;8.614;2023-05-07T08:29:01;15.30;85.70
3860;DHT22;1945;52.036;8.614;2023-05-07T08:31:28;15.30;43.20
3860;DHT22;1945;52.036;8.614;2023-05-07T08:33:56;15.50;88.60
3860;DHT22;1945;52.036;8.614;2023-05-07T08:36:23;15.70;20.30
3860;DHT22;1945;52.036;8.614;2023-05-07T08:38:51;15.60;50.90
3860;DHT22;1945;52.036;8.614;2023-05-07T08:41:17;15.60;25.90
3860;DHT22;1945;52.036;8.614;2023-05-07T08:43:47;15.60;1.00
3860;DHT22;1945;52.036;8.614;2023-05-07T08:46:17;15.90;1.00
3860;DHT22;1945;52.036;8.614;2023-05-07T08:48:44;16.10;1.00
3860;DHT22;1945;52.036;8.614;2023-05-07T08:51:14;16.10;20.10
3860;DHT22;1945;52.036;8.614;2023-05-07T08:53:42;16.00;1.00
3860;DHT22;1945;52.036;8.614;2023-05-07T08:56:09;16.20;1.00
3860;DHT22;1945;52.036;8.614;2023-05-07T08:58:36;16.20;1.00
3860;DHT22;1945;52.036;8.614;2023-05-07T09:01:07;16.10;1.00
3860;DHT22;1945;52.036;8.614;2023-05-07T09:03:34;16.10;1.00
3860;DHT22;1945;52.036;8.614;2023-05-07T09:06:00;16.20;1.00
3860;DHT22;1945;52.036;8.614;2023-05-07T09:08:29;16.10;1.00
3860;DHT22;1945;52.036;8.614;2023-05-07T09:10:55;16.00;1.00
3860;DHT22;1945;52.036;8.614;2023-05-07T09:13:22;15.90;1.00
3860;DHT22;1945;52.036;8.614;2023-05-07T09:15:49;15.80;1.00
3860;DHT22;1945;52.036;8.614;2023-05-07T09:18:15;15.90;1.00
3860;DHT22;1945;52.036;8.614;2023-05-07T09:20:42;15.90;1.00
3860;DHT22;1945;52.036;8.614;2023-05-07T09:23:09;16.00;1.00
3860;DHT22;1945;52.036;8.614;2023-05-07T09:25:37;16.20;1.00
3860;DHT22;1945;52.036;8.614;2023-05-07T09:28:05;16.50;1.00
3860;DHT22;1945;52.036;8.614;2023-05-07T09:30:33;16.80;1.00
3860;DHT22;1945;52.036;8.614;2023-05-07T09:33:01;16.70;1.00
3860;DHT22;1945;52.036;8.614;2023-05-07T09:35:29;16.80;1.00
3860;DHT22;1945;52.036;8.614;2023-05-07T09:37:56;16.60;1.00
3860;DHT22;1945;52.036;8.614;2023-05-07T09:40:24;16.80;1.00
3860;DHT22;1945;52.036;8.614;2023-05-07T09:42:52;16.30;1.00
3860;DHT22;1945;52.036;8.614;2023-05-07T09:45:22;16.20;1.00
3860;DHT22;1945;52.036;8.614;2023-05-07T09:47:54;16.20;1.00
3860;DHT22;1945;52.036;8.614;2023-05-07T09:50:22;16.20;1.00
3860;DHT22;1945;52.036;8.614;2023-05-07T09:52:52;16.30;1.00
3860;DHT22;1945;52.036;8.614;2023-05-07T09:55:19;16.30;1.00
3860;DHT22;1945;52.036;8.614;2023-05-07T09:57:48;16.60;1.00
3860;DHT22;1945;52.036;8.614;2023-05-07T10:00:18;16.80;1.00
3860;DHT22;1945;52.036;8.614;2023-05-07T10:02:47;16.70;1.00
3860;DHT22;1945;52.036;8.614;2023-05-07T10:05:15;16.60;1.00
3860;DHT22;1945;52.036;8.614;2023-05-07T10:07:43;16.50;1.00
3860;DHT22;1945;52.036;8.614;2023-05-07T10:10:11;16.50;1.00
3860;DHT22;1945;52.036;8.614;2023-05-07T10:12:38;16.20;1.00
3860;DHT22;1945;52.036;8.614;2023-05-07T10:15:07;16.50;1.00
3860;DHT22;1945;52.036;8.614;2023-05-07T10:17:36;16.30;1.00
3860;DHT22;1945;52.036;8.614;2023-05-07T10:20:03;16.60;1.00
3860;DHT22;1945;52.036;8.614;2023-05-07T10:22:34;16.90;1.00
3860;DHT22;1945;52.036;8.614;2023-05-07T10:25:07;17.00;1.00
3860;DHT22;1945;52.036;8.614;2023-05-07T10:27:36;16.90;1.00
3860;DHT22;1945;52.036;8.614;2023-05-07T10:30:10;16.90;1.00
3860;DHT22;1945;52.036;8.614;2023-05-07T10:32:43;16.90;1.00
3860;DHT22;1945;52.036;8.614;2023-05-07T10:35:17;17.10;1.00
3860;DHT22;1945;52.036;8.614;2023-05-07T10:37:45;17.10;1.00
3860;DHT22;1945;52.036;8.614;2023-05-07T10:40:13;17.20;1.00
3860;DHT22;1945;52.036;8.614;2023-05-07T10:42:53;17.00;1.00
3860;DHT22;1945;52.036;8.614;2023-05-07T10:45:21;17.10;1.00
3860;DHT22;1945;52.036;8.614;2023-05-07T10:48:11;17.30;1.00
3860;DHT22;1945;52.036;8.614;2023-05-07T10:50:38;17.40;1.00
3860;DHT22;1945;52.036;8.614;2023-05-07T10:53:29;17.50;1.00
3860;DHT22;1945;52.036;8.614;2023-05-07T10:56:24;17.60;1.00
3860;DHT22;1945;52.036;8.614;2023-05-07T10:58:51;17.50;1.00
3860;DHT22;1945;52.036;8.614;2023-05-07T11:01:52;17.60;1.00
3860;DHT22;1945;52.036;8.614;2023-05-07T11:04:21;17.60;1.00
3860;DHT22;1945;52.036;8.614;2023-05-07T11:07:20;17.70;1.00
3860;DHT22;1945;52.036;8.614;2023-05-07T11:10:04;17.80;1.00
3860;DHT22;1945;52.036;8.614;2023-05-07T11:12:53;18.10;1.00
3860;DHT22;1945;52.036;8.614;2023-05-07T11:15:43;18.00;1.00
3860;DHT22;1945;52.036;8.614;2023-05-07T11:18:14;17.90;1.00
3860;DHT22;1945;52.036;8.614;2023-05-07T11:20:51;17.90;1.00
3860;DHT22;1945;52.036;8.614;2023-05-07T11:26:45;18.20;1.00
3860;DHT22;1945;52.036;8.614;2023-05-07T11:29:13;18.30;1.00
3860;DHT22;1945;52.036;8.614;2023-05-07T11:31:40;18.40;1.00
3860;DHT22;1945;52.036;8.614;2023-05-07T11:34:07;18.40;1.00
3860;DHT22;1945;52.036;8.614;2023-05-07T11:36:41;18.30;1.00
3860;DHT22;1945;52.036;8.614;2023-05-07T11:39:26;18.10;1.00
3860;DHT22;1945;52.036;8.614;2023-05-07T11:41:53;18.40;1.00
3860;DHT22;1945;52.036;8.614;2023-05-07T11:44:20;18.40;1.00
3860;DHT22;1945;52.036;8.614;2023-05-07T11:46:46;18.20;1.00
3860;DHT22;1945;52.036;8.614;2023-05-07T11:49:13;18.30;1.00
3860;DHT22;1945;52.036;8.614;2023-05-07T11:51:42;18.40;1.00
3860;DHT22;1945;52.036;8.614;2023-05-07T11:54:09;18.30;1.00
3860;DHT22;1945;52.036;8.614;2023-05-07T11:56:37;18.10;1.00
3860;DHT22;1945;52.036;8.614;2023-05-07T11:59:04;18.20;1.00
3860;DHT22;1945;52.036;8.614;2023-05-07T12:01:31;18.10;1.00
3860;DHT22;1945;52.036;8.614;2023-05-07T12:03:58;18.40;1.00
3860;DHT22;1945;52.036;8.614;2023-05-07T12:06:24;18.40;1.00
3860;DHT22;1945;52.036;8.614;2023-05-07T12:08:53;18.50;1.00
3860;DHT22;1945;52.036;8.614;2023-05-07T12:11:23;18.20;1.00
3860;DHT22;1945;52.036;8.614;2023-05-07T12:13:50;18.10;1.00
3860;DHT22;1945;52.036;8.614;2023-05-07T12:16:17;18.10;1.00
3860;DHT22;1945;52.036;8.614;2023-05-07T12:18:45;18.50;1.00
3860;DHT22;1945;52.036;8.614;2023-05-07T12:21:11;18.60;1.00
3860;DHT22;1945;52.036;8.614;2023-05-07T12:23:39;18.60;1.00
3860;DHT22;1945;52.036;8.614;2023-05-07T12:26:08;18.40;1.00
3860;DHT22;1945;52.036;8.614;2023-05-07T12:28:38;18.40;1.00
3860;DHT22;1945;52.036;8.614;2023-05-07T12:31:05;18.60;1.00
3860;DHT22;1945;52.036;8.614;2023-05-07T12:33:33;18.60;1.00
3860;DHT22;1945;52.036;8.614;2023-05-07T12:36:04;18.20;1.00
3860;DHT22;1945;52.036;8.614;2023-05-07T12:38:36;18.20;1.00
3860;DHT22;1945;52.036;8.614;2023-05-07T12:41:03;18.30;1.00
3860;DHT22;1945;52.036;8.614;2023-05-07T12:43:31;18.10;1.00
3860;DHT22;1945;52.036;8.614;2023-05-07T12:46:00;18.30;1.00
3860;DHT22;1945;52.036;8.614;2023-05-07T12:48:28;18.40;1.00
3860;DHT22;1945;52.036;8.614;2023-05-07T12:50:55;18.30;1.00
3860;DHT22;1945;52.036;8.614;2023-05-07T12:53:25;18.10;1.00
3860;DHT22;1945;52.036;8.614;2023-05-07T12:55:53;18.30;1.00
3860;DHT22;1945;52.036;8.614;2023-05-07T12:58:21;17.90;1.00
3860;DHT22;1945;52.036;8.614;2023-05-07T13:00:50;17.90;1.00
3860;DHT22;1945;52.036;8.614;2023-05-07T13:03:22;18.30;1.00
3860;DHT22;1945;52.036;8.614;2023-05-07T13:05:49;18.50;1.00
3860;DHT22;1945;52.036;8.614;2023-05-07T13:08:25;18.60;1.00
3860;DHT22;1945;52.036;8.614;2023-05-07T13:10:51;18.40;1.00
3860;DHT22;1945;52.036;8.614;2023-05-07T13:13:18;18.40;1.00
3860;DHT22;1945;52.036;8.614;2023-05-07T13:15:45;18.60;1.00
3860;DHT22;1945;52.036;8.614;2023-05-07T13:18:13;18.70;1.00
3860;DHT22;1945;52.036;8.614;2023-05-07T13:20:40;19.00;1.00
3860;DHT22;1945;52.036;8.614;2023-05-07T13:23:07;18.90;1.00
3860;DHT22;1945;52.036;8.614;2023-05-07T13:25:33;18.80;1.00
3860;DHT22;1945;52.036;8.614;2023-05-07T13:28:00;18.80;1.00
3860;DHT22;1945;52.036;8.614;2023-05-07T13:30:28;18.40;1.00
3860;DHT22;1945;52.036;8.614;2023-05-07T13:32:55;18.30;1.00
3860;DHT22;1945;52.036;8.614;2023-05-07T13:35:23;18.50;1.00
3860;DHT22;1945;52.036;8.614;2023-05-07T13:37:50;18.40;1.00
3860;DHT22;1945;52.036;8.614;2023-05-07T13:40:17;18.10;1.00
3860;DHT22;1945;52.036;8.614;2023-05-07T13:42:44;18.10;1.00
3860;DHT22;1945;52.036;8.614;2023-05-07T13:45:11;18.50;1.00
3860;DHT22;1945;52.036;8.614;2023-05-07T13:47:39;18.20;1.00
3860;DHT22;1945;52.036;8.614;2023-05-07T13:50:07;18.30;1.00
3860;DHT22;1945;52.036;8.614;2023-05-07T13:52:35;18.40;1.00
3860;DHT22;1945;52.036;8.614;2023-05-07T13:55:02;18.30;1.00
3860;DHT22;1945;52.036;8.614;2023-05-07T13:57:29;18.20;1.00
3860;DHT22;1945;52.036;8.614;2023-05-07T13:59:56;18.10;1.00
3860;DHT22;1945;52.036;8.614;2023-05-07T14:02:22;17.90;1.00
3860;DHT22;1945;52.036;8.614;2023-05-07T14:04:49;17.80;1.00
3860;DHT22;1945;52.036;8.614;2023-05-07T14:07:15;18.00;1.00
3860;DHT22;1945;52.036;8.614;2023-05-07T14:09:43;18.00;1.00
3860;DHT22;1945;52.036;8.614;2023-05-07T14:12:10;18.20;1.00
3860;DHT22;1945;52.036;8.614;2023-05-07T14:14:37;17.90;1.00
3860;DHT22;1945;52.036;8.614;2023-05-07T14:17:04;17.90;1.00
3860;DHT22;1945;52.036;8.614;2023-05-07T14:19:30;18.00;1.00
3860;DHT22;1945;52.036;8.614;2023-05-07T14:21:57;18.00;1.00
3860;DHT22;1945;52.036;8.614;2023-05-07T14:24:24;18.10;1.00
3860;DHT22;1945;52.036;8.614;2023-05-07T14:26:52;18.20;1.00
3860;DHT22;1945;52.036;8.614;2023-05-07T14:29:19;18.00;1.00
3860;DHT22;1945;52.036;8.614;2023-05-07T14:31:45;17.90;1.00
3860;DHT22;1945;52.036;8.614;2023-05-07T14:34:12;18.00;1.00
3860;DHT22;1945;52.036;8.614;2023-05-07T14:36:39;17.70;1.00
3860;DHT22;1945;52.036;8.614;2023-05-07T14:39:06;17.60;1.00
3860;DHT22;1945;52.036;8.614;2023-05-07T14:41:32;17.50;1.00
3860;DHT22;1945;52.036;8.614;2023-05-07T14:44:00;17.60;1.00
3860;DHT22;1945;52.036;8.614;2023-05-07T14:46:29;17.70;1.00
3860;DHT22;1945;52.036;8.614;2023-05-07T14:48:56;17.70;1.00
3860;DHT22;1945;52.036;8.614;2023-05-07T14:51:23;17.70;1.00
3860;DHT22;1945;52.036;8.614;2023-05-07T14:53:51;17.70;1.00
3860;DHT22;1945;52.036;8.614;2023-05-07T14:56:17;17.70;1.00
3860;DHT22;1945;52.036;8.614;2023-05-07T14:58:46;17.80;1.00
3860;DHT22;1945;52.036;8.614;2023-05-07T15:01:14;17.80;1.00
3860;DHT22;1945;52.036;8.614;2023-05-07T15:03:41;17.90;1.00
3860;DHT22;1945;52.036;8.614;2023-05-07T15:06:08;17.80;1.00
3860;DHT22;1945;52.036;8.614;2023-05-07T15:08:34;17.90;1.00
3860;DHT22;1945;52.036;8.614;2023-05-07T15:11:01;17.90;1.00
3860;DHT22;1945;52.036;8.614;2023-05-07T15:13:28;17.70;1.00
3860;DHT22;1945;52.036;8.614;2023-05-07T15:15:54;17.80;1.00
3860;DHT22;1945;52.036;8.614;2023-05-07T15:18:23;17.60;1.00
3860;DHT22;1945;52.036;8.614;2023-05-07T15:20:50;17.40;1.00
3860;DHT22;1945;52.036;8.614;2023-05-07T15:23:16;17.40;1.00
3860;DHT22;1945;52.036;8.614;2023-05-07T15:25:43;17.60;1.00
3860;DHT22;1945;52.036;8.614;2023-05-07T15:28:10;17.70;1.00
3860;DHT22;1945;52.036;8.614;2023-05-07T15:30:36;17.70;1.00
3860;DHT22;1945;52.036;8.614;2023-05-07T15:33:03;17.80;1.00
3860;DHT22;1945;52.036;8.614;2023-05-07T15:35:31;17.80;1.00
3860;DHT22;1945;52.036;8.614;2023-05-07T15:37:58;17.80;1.00
3860;DHT22;1945;52.036;8.614;2023-05-07T15:40:24;17.80;1.00
3860;DHT22;1945;52.036;8.614;2023-05-07T15:42:54;17.90;1.00
3860;DHT22;1945;52.036;8.614;2023-05-07T15:45:21;17.80;1.00
3860;DHT22;1945;52.036;8.614;2023-05-07T15:47:48;17.80;1.00
3860;DHT22;1945;52.036;8.614;2023-05-07T15:50:15;17.70;1.00
3860;DHT22;1945;52.036;8.614;2023-05-07T15:52:43;17.70;1.00
3860;DHT22;1945;52.036;8.614;2023-05-07T15:55:11;17.60;1.00
3860;DHT22;1945;52.036;8.614;2023-05-07T15:57:38;17.70;1.00
3860;DHT22;1945;52.036;8.614;2023-05-07T16:00:06;17.70;1.00
3860;DHT22;1945;52.036;8.614;2023-05-07T16:02:33;17.80;1.00
3860;DHT22;1945;52.036;8.614;2023-05-07T16:05:01;17.80;1.00
3860;DHT22;1945;52.036;8.614;2023-05-07T16:07:27;17.80;1.00
3860;DHT22;1945;52.036;8.614;2023-05-07T16:09:55;17.70;1.00
3860;DHT22;1945;52.036;8.614;2023-05-07T16:12:22;17.70;1.00
3860;DHT22;1945;52.036;8.614;2023-05-07T16:14:49;17.60;1.00
3860;DHT22;1945;52.036;8.614;2023-05-07T16:17:16;17.60;1.00
3860;DHT22;1945;52.036;8.614;2023-05-07T16:19:43;17.70;1.00
3860;DHT22;1945;52.036;8.614;2023-05-07T16:22:10;17.70;1.00